Time;durP1;ratioP1;P1;durP2;ratioP2;P2;SDS_P1;SDS_P2;PMS_P1;PMS_P2;Temp;Humidity;BMP_temperature;BMP_pressure;BME280_temperature;BME280_humidity;BME280_pressure;Samples;Min_cycle;Max_cycle;Signal;HPM_P1;HPM_P2
2022/12/12 00:00:04;;;;;;;40.40;23.05;;;;;;;;;;5058674;28;20044;-78
2022/12/12 00:02:30;;;;;;;39.15;22.17;;;;;;;;;;5059947;28;20041;-78
2022/12/12 00:04:56;;;;;;;41.90;23.85;;;;;;;;;;5057254;28;20127;-78
2022/12/12 00:07:23;;;;;;;37.47;22.05;;;;;;;;;;5058932;28;20055;-78
2022/12/12 00:09:49;;;;;;;40.13;23.17;;;;;;;;;;5059489;28;20040;-78
2022/12/12 00:12:15;;;;;;;38.88;22.75;;;;;;;;;;5056849;28;20037;-78
2022/12/12 00:14:41;;;;;;;36.20;22.38;;;;;;;;;;5060481;28;20445;-78
2022/12/12 00:17:07;;;;;;;38.35;23.27;;;;;;;;;;5057159;28;20036;-79
2022/12/12 00:19:33;;;;;;;36.88;22.80;;;;;;;;;;5060412;28;20052;-78
2022/12/12 00:21:59;;;;;;;43.67;23.95;;;;;;;;;;5055836;28;20044;-78
2022/12/12 00:24:25;;;;;;;38.30;22.55;;;;;;;;;;5062054;28;20080;-78
2022/12/12 00:26:51;;;;;;;38.03;22.58;;;;;;;;;;5062296;28;20037;-78
2022/12/12 00:29:17;;;;;;;41.10;23.50;;;;;;;;;;5061094;28;20044;-78
2022/12/12 00:31:43;;;;;;;34.60;22.33;;;;;;;;;;5061065;28;20507;-78
2022/12/12 00:34:09;;;;;;;39.63;22.92;;;;;;;;;;5053694;28;20782;-78
2022/12/12 00:36:35;;;;;;;37.35;22.23;;;;;;;;;;5056351;28;20071;-79
2022/12/12 00:39:01;;;;;;;33.85;21.75;;;;;;;;;;5052988;28;20054;-79
2022/12/12 00:41:27;;;;;;;38.95;23.42;;;;;;;;;;5056933;28;20075;-78
2022/12/12 00:43:53;;;;;;;35.20;22.35;;;;;;;;;;5059329;28;20040;-78
2022/12/12 00:46:21;;;;;;;39.03;23.77;;;;;;;;;;5058745;28;20044;-78
2022/12/12 00:48:47;;;;;;;34.92;20.92;;;;;;;;;;5057532;28;20499;-78
2022/12/12 00:51:16;;;;;;;35.90;21.25;;;;;;;;;;5058144;28;20048;-78
2022/12/12 00:53:42;;;;;;;37.05;22.23;;;;;;;;;;5055679;28;20036;-78
2022/12/12 00:56:08;;;;;;;36.47;21.83;;;;;;;;;;5055818;28;20104;-78
2022/12/12 00:58:34;;;;;;;32.95;20.98;;;;;;;;;;5058568;28;20063;-78
2022/12/12 01:01:05;;;;;;;35.50;21.45;;;;;;;;;;5056600;28;20048;-78
2022/12/12 01:03:35;;;;;;;37.25;22.25;;;;;;;;;;5053755;28;21625;-78
2022/12/12 01:06:01;;;;;;;35.47;22.60;;;;;;;;;;5056392;28;20049;-78
2022/12/12 01:08:27;;;;;;;37.17;21.42;;;;;;;;;;5055016;28;20041;-78
2022/12/12 01:10:53;;;;;;;37.05;22.10;;;;;;;;;;5054194;28;20141;-79
2022/12/12 01:13:19;;;;;;;33.22;21.13;;;;;;;;;;5052446;28;20044;-78
2022/12/12 01:15:45;;;;;;;37.70;22.30;;;;;;;;;;5054288;28;20131;-78
2022/12/12 01:18:11;;;;;;;37.83;22.13;;;;;;;;;;5061101;28;20131;-78
2022/12/12 01:20:37;;;;;;;37.45;21.92;;;;;;;;;;5058614;28;20079;-78
2022/12/12 01:23:03;;;;;;;32.90;20.75;;;;;;;;;;5056199;28;20041;-78
2022/12/12 01:25:29;;;;;;;36.20;22.10;;;;;;;;;;5059795;28;20093;-78
2022/12/12 01:27:55;;;;;;;34.58;21.35;;;;;;;;;;5060421;28;20048;-78
2022/12/12 01:30:22;;;;;;;36.20;21.77;;;;;;;;;;5059098;28;20434;-78
2022/12/12 01:32:48;;;;;;;34.80;21.17;;;;;;;;;;5055565;28;20036;-78
2022/12/12 01:35:14;;;;;;;34.03;22.05;;;;;;;;;;5058257;28;20056;-78
2022/12/12 01:37:40;;;;;;;36.67;21.25;;;;;;;;;;5057590;28;20041;-78
2022/12/12 01:40:08;;;;;;;34.35;21.02;;;;;;;;;;5050562;28;20152;-78
2022/12/12 01:42:34;;;;;;;32.80;20.90;;;;;;;;;;5060454;28;20043;-78
2022/12/12 01:45:01;;;;;;;33.97;21.67;;;;;;;;;;5054113;28;20079;-78
2022/12/12 01:47:27;;;;;;;35.42;21.92;;;;;;;;;;5060991;28;20107;-78
2022/12/12 01:50:01;;;;;;;36.38;21.23;;;;;;;;;;5061438;28;20048;-78
2022/12/12 01:52:28;;;;;;;35.20;21.25;;;;;;;;;;5055057;28;20494;-78
2022/12/12 01:54:56;;;;;;;35.55;21.92;;;;;;;;;;5057267;28;20180;-78
2022/12/12 01:57:34;;;;;;;33.10;20.42;;;;;;;;;;5057104;28;20048;-78
2022/12/12 02:00:00;;;;;;;36.38;22.85;;;;;;;;;;5052431;28;20052;-78
2022/12/12 02:02:27;;;;;;;37.60;22.27;;;;;;;;;;5058863;28;20178;-78
2022/12/12 02:04:56;;;;;;;34.38;21.13;;;;;;;;;;5057892;28;20055;-78
2022/12/12 02:07:22;;;;;;;33.25;21.17;;;;;;;;;;5054257;28;20045;-78
2022/12/12 02:09:49;;;;;;;34.85;21.27;;;;;;;;;;5060200;28;20131;-77
2022/12/12 02:12:15;;;;;;;36.90;22.55;;;;;;;;;;5058379;28;20083;-78
2022/12/12 02:14:43;;;;;;;32.45;21.15;;;;;;;;;;5059417;28;20076;-78
2022/12/12 02:17:18;;;;;;;33.67;22.00;;;;;;;;;;5057536;28;20048;-78
2022/12/12 02:20:03;;;;;;;35.92;20.90;;;;;;;;;;5060195;28;20063;-78
2022/12/12 02:22:31;;;;;;;39.10;23.52;;;;;;;;;;5059453;28;20044;-78
2022/12/12 02:25:03;;;;;;;36.30;21.65;;;;;;;;;;5056252;28;20049;-78
2022/12/12 02:27:39;;;;;;;34.83;21.67;;;;;;;;;;5060195;28;20041;-78
2022/12/12 02:30:17;;;;;;;39.53;23.15;;;;;;;;;;5057925;28;20093;-78
2022/12/12 02:32:49;;;;;;;34.05;21.77;;;;;;;;;;5056437;28;20041;-78
2022/12/12 02:35:23;;;;;;;36.15;22.30;;;;;;;;;;5058080;28;20114;-78
2022/12/12 02:37:55;;;;;;;36.05;21.88;;;;;;;;;;5056519;28;20049;-78
2022/12/12 02:40:30;;;;;;;37.38;21.08;;;;;;;;;;5056390;28;20043;-78
2022/12/12 02:43:04;;;;;;;33.35;20.48;;;;;;;;;;5058313;28;20049;-78
2022/12/12 02:45:30;;;;;;;36.45;22.05;;;;;;;;;;5063730;28;20052;-78
2022/12/12 02:48:00;;;;;;;33.35;20.40;;;;;;;;;;5056990;28;20063;-78
2022/12/12 02:50:28;;;;;;;32.25;20.90;;;;;;;;;;5061041;28;20076;-78
2022/12/12 02:52:54;;;;;;;33.05;19.27;;;;;;;;;;5062552;28;20091;-78
2022/12/12 02:55:20;;;;;;;31.63;19.75;;;;;;;;;;5056429;28;20500;-77
2022/12/12 02:57:47;;;;;;;31.98;20.42;;;;;;;;;;5056148;28;20051;-78
2022/12/12 03:00:17;;;;;;;29.83;18.63;;;;;;;;;;5054275;28;20040;-78
2022/12/12 03:02:46;;;;;;;31.73;18.92;;;;;;;;;;5053066;28;20798;-78
2022/12/12 03:08:14;;;;;;;31.13;18.75;;;;;;;;;;5058803;28;20444;-78
2022/12/12 03:10:41;;;;;;;29.80;18.15;;;;;;;;;;5057587;28;20068;-78
2022/12/12 03:13:31;;;;;;;28.30;18.08;;;;;;;;;;5058952;28;20484;-78
2022/12/12 03:16:05;;;;;;;27.50;17.83;;;;;;;;;;5059638;28;20041;-78
2022/12/12 03:18:37;;;;;;;;;;;;;;;;;;5061008;28;20044;-78
2022/12/12 03:21:03;;;;;;;25.10;16.23;;;;;;;;;;5059382;28;20372;-78
2022/12/12 03:23:38;;;;;;;27.30;17.38;;;;;;;;;;5062329;28;20041;-78
2022/12/12 03:26:08;;;;;;;26.15;17.25;;;;;;;;;;5067285;28;20447;-78
2022/12/12 03:28:40;;;;;;;28.52;16.55;;;;;;;;;;5064279;28;20503;-78
2022/12/12 03:31:09;;;;;;;29.33;17.70;;;;;;;;;;5059756;28;20043;-78
2022/12/12 03:33:50;;;;;;;27.45;17.15;;;;;;;;;;5065099;28;20045;-78
2022/12/12 03:36:23;;;;;;;23.85;16.17;;;;;;;;;;5063868;28;20036;-78
2022/12/12 03:38:56;;;;;;;26.27;16.83;;;;;;;;;;5054782;28;20044;-78
2022/12/12 03:41:24;;;;;;;25.73;16.40;;;;;;;;;;5056643;28;20055;-78
2022/12/12 03:43:56;;;;;;;26.13;16.58;;;;;;;;;;5063240;28;20044;-78
2022/12/12 03:46:28;;;;;;;25.33;15.93;;;;;;;;;;5061914;28;20097;-78
2022/12/12 03:49:04;;;;;;;23.02;15.02;;;;;;;;;;5055500;28;20499;-78
2022/12/12 03:51:36;;;;;;;24.20;16.08;;;;;;;;;;5062351;28;20094;-78
2022/12/12 03:54:11;;;;;;;26.00;17.20;;;;;;;;;;5065311;28;20416;-78
2022/12/12 03:56:42;;;;;;;28.55;16.73;;;;;;;;;;5062604;28;20102;-78
2022/12/12 03:59:23;;;;;;;26.23;16.75;;;;;;;;;;5060568;28;20052;-78
2022/12/12 04:01:52;;;;;;;28.50;17.40;;;;;;;;;;5057506;28;20047;-78
2022/12/12 04:04:24;;;;;;;23.73;16.27;;;;;;;;;;5057252;28;20127;-78
2022/12/12 04:07:03;;;;;;;26.25;16.58;;;;;;;;;;5059657;28;20102;-77
2022/12/12 04:15:19;;;;;;;25.35;15.63;;;;;;;;;;5053224;28;20048;-78
2022/12/12 04:17:53;;;;;;;23.85;14.93;;;;;;;;;;5031814;28;20477;-78
2022/12/12 04:23:25;;;;;;;25.17;16.48;;;;;;;;;;5056539;28;20404;-78
2022/12/12 04:28:39;;;;;;;26.30;16.48;;;;;;;;;;5056000;28;19929;-78
2022/12/12 04:31:06;;;;;;;25.45;15.73;;;;;;;;;;5059245;28;20044;-78
2022/12/12 04:33:38;;;;;;;23.65;15.77;;;;;;;;;;5058255;28;20044;-78
2022/12/12 04:36:07;;;;;;;28.40;17.42;;;;;;;;;;5057608;28;20048;-78
2022/12/12 04:38:35;;;;;;;24.40;16.33;;;;;;;;;;5060751;28;20076;-78
2022/12/12 04:41:02;;;;;;;25.10;16.27;;;;;;;;;;5056987;28;20143;-77
2022/12/12 04:43:34;;;;;;;25.33;16.27;;;;;;;;;;5058239;28;20055;-78
2022/12/12 04:46:04;;;;;;;27.95;17.48;;;;;;;;;;5060587;28;20127;-77
2022/12/12 04:48:33;;;;;;;25.42;16.67;;;;;;;;;;5054657;28;20550;-77
2022/12/12 04:51:00;;;;;;;25.08;17.05;;;;;;;;;;5060051;28;20048;-77
2022/12/12 04:53:29;;;;;;;25.33;16.08;;;;;;;;;;5058195;28;20135;-78
2022/12/12 04:55:56;;;;;;;27.15;17.67;;;;;;;;;;5059495;28;20488;-77
2022/12/12 04:58:23;;;;;;;26.27;17.05;;;;;;;;;;5054309;28;20060;-78
2022/12/12 05:01:03;;;;;;;25.70;16.92;;;;;;;;;;5056245;28;20125;-78
2022/12/12 05:03:37;;;;;;;25.65;16.65;;;;;;;;;;5058764;28;20131;-78
2022/12/12 05:06:09;;;;;;;26.38;15.65;;;;;;;;;;5061733;28;20139;-78
2022/12/12 05:08:37;;;;;;;25.63;16.95;;;;;;;;;;5056783;28;20041;-78
2022/12/12 05:11:05;;;;;;;25.13;16.23;;;;;;;;;;5061504;28;20036;-78
2022/12/12 05:13:36;;;;;;;27.35;16.83;;;;;;;;;;5057415;28;20090;-78
2022/12/12 05:16:03;;;;;;;28.35;16.17;;;;;;;;;;5057254;28;20047;-77
2022/12/12 05:18:30;;;;;;;27.88;16.55;;;;;;;;;;5058098;28;20036;-77
2022/12/12 05:20:56;;;;;;;25.17;16.75;;;;;;;;;;5053500;28;20059;-77
2022/12/12 05:23:22;;;;;;;25.90;16.55;;;;;;;;;;5062149;28;20048;-78
2022/12/12 05:25:48;;;;;;;29.20;18.08;;;;;;;;;;5060202;28;20495;-78
2022/12/12 05:28:14;;;;;;;27.80;16.92;;;;;;;;;;5064903;28;20041;-78
2022/12/12 05:30:40;;;;;;;26.88;16.92;;;;;;;;;;5057692;28;20484;-78
2022/12/12 05:33:06;;;;;;;25.60;16.85;;;;;;;;;;5058978;28;20036;-77
2022/12/12 05:35:32;;;;;;;26.80;16.83;;;;;;;;;;5057342;28;20396;-77
2022/12/12 05:37:59;;;;;;;25.63;16.67;;;;;;;;;;5055688;28;20089;-77
2022/12/12 05:40:25;;;;;;;26.70;16.20;;;;;;;;;;5051422;28;20045;-78
2022/12/12 05:42:51;;;;;;;24.92;16.40;;;;;;;;;;5060919;28;20036;-77
2022/12/12 05:45:17;;;;;;;24.90;16.35;;;;;;;;;;5056453;28;20130;-78
2022/12/12 05:47:43;;;;;;;26.52;17.00;;;;;;;;;;5058797;28;20127;-77
2022/12/12 05:50:09;;;;;;;25.65;16.58;;;;;;;;;;5056426;28;20068;-78
2022/12/12 05:52:35;;;;;;;27.00;15.60;;;;;;;;;;5057978;28;20369;-78
2022/12/12 05:55:01;;;;;;;25.20;15.82;;;;;;;;;;5059443;28;20052;-77
2022/12/12 05:57:27;;;;;;;24.33;16.50;;;;;;;;;;5052717;28;20124;-77
2022/12/12 05:59:53;;;;;;;25.58;16.55;;;;;;;;;;5058554;28;20135;-78
2022/12/12 06:02:19;;;;;;;26.17;16.00;;;;;;;;;;5054323;28;20127;-78
2022/12/12 06:04:45;;;;;;;26.98;17.23;;;;;;;;;;5053805;28;20383;-78
2022/12/12 06:07:11;;;;;;;26.48;16.42;;;;;;;;;;5054294;28;20552;-78
2022/12/12 06:09:38;;;;;;;26.17;16.40;;;;;;;;;;5056172;28;20520;-77
2022/12/12 06:12:04;;;;;;;24.33;16.02;;;;;;;;;;5060947;28;20053;-78
2022/12/12 06:14:30;;;;;;;28.70;17.75;;;;;;;;;;5055947;28;20045;-78
2022/12/12 06:16:56;;;;;;;26.70;16.52;;;;;;;;;;5059268;28;20106;-78
2022/12/12 06:19:22;;;;;;;26.70;15.82;;;;;;;;;;5059892;28;20037;-78
2022/12/12 06:21:48;;;;;;;24.73;15.23;;;;;;;;;;5057348;28;20041;-78
2022/12/12 06:24:14;;;;;;;26.25;17.20;;;;;;;;;;5057411;28;20048;-78
2022/12/12 06:26:40;;;;;;;28.70;17.40;;;;;;;;;;5064353;28;20045;-78
2022/12/12 06:29:06;;;;;;;24.38;16.08;;;;;;;;;;5057317;28;20036;-78
2022/12/12 06:31:32;;;;;;;25.45;16.40;;;;;;;;;;5056887;28;20052;-78
2022/12/12 06:33:58;;;;;;;27.25;16.65;;;;;;;;;;5060229;28;20076;-77
2022/12/12 06:36:25;;;;;;;27.67;17.63;;;;;;;;;;5058098;28;20078;-77
2022/12/12 06:38:55;;;;;;;30.90;19.27;;;;;;;;;;5052591;28;20059;-77
2022/12/12 06:41:22;;;;;;;31.88;19.02;;;;;;;;;;5062326;28;20048;-78
2022/12/12 06:43:48;;;;;;;28.55;17.92;;;;;;;;;;5063880;28;20072;-77
2022/12/12 06:46:16;;;;;;;27.70;16.77;;;;;;;;;;5059095;28;20047;-77
2022/12/12 06:48:42;;;;;;;29.25;17.77;;;;;;;;;;5057103;28;20136;-78
2022/12/12 06:51:09;;;;;;;28.55;17.15;;;;;;;;;;5063170;28;20145;-77
2022/12/12 06:53:35;;;;;;;27.17;16.00;;;;;;;;;;5061542;28;20041;-77
2022/12/12 06:56:05;;;;;;;25.05;16.63;;;;;;;;;;5056946;28;20048;-77
2022/12/12 06:58:31;;;;;;;26.15;17.52;;;;;;;;;;5063110;28;20101;-77
2022/12/12 07:01:00;;;;;;;26.95;16.85;;;;;;;;;;5055296;28;20053;-77
2022/12/12 07:03:26;;;;;;;24.45;16.10;;;;;;;;;;5059850;28;20048;-77
2022/12/12 07:05:52;;;;;;;26.33;16.50;;;;;;;;;;5059702;28;20040;-77
2022/12/12 07:08:18;;;;;;;27.05;17.65;;;;;;;;;;5066316;28;20050;-77
2022/12/12 07:10:44;;;;;;;26.27;17.25;;;;;;;;;;5062697;28;20044;-77
2022/12/12 07:13:10;;;;;;;26.88;16.60;;;;;;;;;;5062151;28;20400;-77
2022/12/12 07:15:43;;;;;;;23.92;15.57;;;;;;;;;;5056505;28;20045;-77
2022/12/12 07:18:10;;;;;;;25.00;16.38;;;;;;;;;;5061125;28;20056;-77
2022/12/12 07:20:40;;;;;;;25.33;16.10;;;;;;;;;;5062866;28;20053;-77
2022/12/12 07:23:06;;;;;;;25.65;15.82;;;;;;;;;;5062222;28;20049;-77
2022/12/12 07:25:32;;;;;;;26.58;16.10;;;;;;;;;;5063333;28;20040;-77
2022/12/12 07:27:58;;;;;;;25.15;16.17;;;;;;;;;;5061852;28;20048;-76
2022/12/12 07:30:24;;;;;;;24.92;16.17;;;;;;;;;;5060259;28;20132;-77
2022/12/12 07:32:52;;;;;;;27.20;16.63;;;;;;;;;;5060363;28;20035;-77
2022/12/12 07:35:18;;;;;;;26.08;16.15;;;;;;;;;;5065598;28;20048;-77
2022/12/12 07:37:44;;;;;;;27.02;16.77;;;;;;;;;;5060157;28;20119;-77
2022/12/12 07:40:11;;;;;;;27.45;17.73;;;;;;;;;;5063570;28;20068;-77
2022/12/12 07:42:37;;;;;;;25.77;17.50;;;;;;;;;;5066041;28;20433;-77
2022/12/12 07:45:03;;;;;;;25.27;17.13;;;;;;;;;;5061117;28;20131;-77
2022/12/12 07:47:29;;;;;;;27.92;18.02;;;;;;;;;;5064416;28;20049;-76
2022/12/12 07:49:55;;;;;;;23.85;16.10;;;;;;;;;;5062524;28;20136;-77
2022/12/12 07:52:21;;;;;;;26.20;17.60;;;;;;;;;;5061138;28;20119;-77
2022/12/12 07:54:47;;;;;;;28.60;17.38;;;;;;;;;;5057710;28;20064;-77
2022/12/12 07:57:14;;;;;;;24.83;16.50;;;;;;;;;;5056404;28;20499;-77
2022/12/12 07:59:40;;;;;;;29.42;17.70;;;;;;;;;;5058128;28;20045;-76
2022/12/12 08:02:06;;;;;;;27.05;17.75;;;;;;;;;;5059918;28;20476;-76
2022/12/12 08:04:32;;;;;;;29.63;17.35;;;;;;;;;;5062066;28;20036;-76
2022/12/12 08:06:58;;;;;;;28.77;17.33;;;;;;;;;;5057405;28;20448;-76
2022/12/12 08:09:24;;;;;;;26.25;17.48;;;;;;;;;;5060507;28;20076;-76
2022/12/12 08:11:50;;;;;;;27.58;17.33;;;;;;;;;;5061127;28;20076;-76
2022/12/12 08:14:16;;;;;;;28.48;17.90;;;;;;;;;;5059588;28;20041;-76
2022/12/12 08:16:43;;;;;;;26.85;17.42;;;;;;;;;;5056850;28;20094;-76
2022/12/12 08:19:09;;;;;;;27.38;18.02;;;;;;;;;;5057013;28;20114;-76
2022/12/12 08:21:35;;;;;;;30.73;18.70;;;;;;;;;;5064041;28;20472;-76
2022/12/12 08:24:02;;;;;;;28.80;16.98;;;;;;;;;;5057879;28;20070;-76
2022/12/12 08:26:28;;;;;;;28.38;18.02;;;;;;;;;;5057918;28;20055;-76
2022/12/12 08:28:55;;;;;;;26.83;16.60;;;;;;;;;;5058909;28;20132;-76
2022/12/12 08:31:21;;;;;;;31.58;19.20;;;;;;;;;;5060313;28;20047;-76
2022/12/12 08:33:52;;;;;;;27.40;16.90;;;;;;;;;;5064474;28;20146;-76
2022/12/12 08:36:18;;;;;;;27.67;18.80;;;;;;;;;;5063242;28;20036;-76
2022/12/12 08:38:44;;;;;;;28.92;17.85;;;;;;;;;;5062743;28;20053;-76
2022/12/12 08:41:10;;;;;;;33.05;19.13;;;;;;;;;;5059293;28;20044;-76
2022/12/12 08:43:37;;;;;;;31.77;19.70;;;;;;;;;;5062950;28;20052;-75
2022/12/12 08:46:06;;;;;;;35.30;19.33;;;;;;;;;;5062162;28;20040;-75
2022/12/12 08:48:32;;;;;;;29.85;19.13;;;;;;;;;;5057293;28;20037;-75
2022/12/12 08:50:59;;;;;;;30.73;19.77;;;;;;;;;;5060504;28;20544;-75
2022/12/12 08:53:25;;;;;;;33.80;20.25;;;;;;;;;;5060924;28;20049;-76
2022/12/12 08:55:52;;;;;;;33.95;21.55;;;;;;;;;;5061990;28;20053;-75
2022/12/12 08:58:18;;;;;;;30.85;19.42;;;;;;;;;;5058221;28;20041;-75
2022/12/12 09:00:44;;;;;;;34.15;20.90;;;;;;;;;;5061883;28;20103;-75
2022/12/12 09:03:10;;;;;;;36.90;20.58;;;;;;;;;;5057104;28;20041;-76
2022/12/12 09:05:36;;;;;;;33.15;20.20;;;;;;;;;;5060011;28;20059;-75
2022/12/12 09:08:02;;;;;;;33.78;20.45;;;;;;;;;;5052433;28;20045;-75
2022/12/12 09:10:28;;;;;;;33.33;21.02;;;;;;;;;;5059200;28;20078;-75
2022/12/12 09:12:54;;;;;;;34.38;20.85;;;;;;;;;;5062036;28;20373;-75
2022/12/12 09:15:21;;;;;;;33.97;20.75;;;;;;;;;;5055989;28;20473;-75
2022/12/12 09:17:47;;;;;;;35.45;21.60;;;;;;;;;;5057271;28;20063;-75
2022/12/12 09:20:13;;;;;;;35.22;21.27;;;;;;;;;;5064014;28;20488;-75
2022/12/12 09:22:39;;;;;;;33.63;20.92;;;;;;;;;;5060581;28;20543;-75
2022/12/12 09:25:05;;;;;;;36.10;21.30;;;;;;;;;;5062720;28;20049;-75
2022/12/12 09:27:31;;;;;;;35.95;21.50;;;;;;;;;;5056871;28;20052;-75
2022/12/12 09:29:58;;;;;;;34.30;20.55;;;;;;;;;;5055980;28;20073;-75
2022/12/12 09:32:24;;;;;;;33.30;19.75;;;;;;;;;;5054844;28;20094;-75
2022/12/12 09:34:50;;;;;;;35.78;21.80;;;;;;;;;;5062491;28;20040;-75
2022/12/12 09:37:16;;;;;;;36.85;21.42;;;;;;;;;;5058679;28;20139;-75
2022/12/12 09:39:42;;;;;;;35.97;20.83;;;;;;;;;;5059857;28;20167;-75
2022/12/12 09:42:09;;;;;;;35.13;21.67;;;;;;;;;;5061538;28;20084;-75
2022/12/12 09:44:35;;;;;;;34.78;22.58;;;;;;;;;;5060815;28;20373;-75
2022/12/12 09:47:05;;;;;;;33.75;21.42;;;;;;;;;;5061789;28;20059;-76
2022/12/12 09:49:50;;;;;;;34.75;22.23;;;;;;;;;;5058279;28;20112;-75
2022/12/12 09:52:27;;;;;;;36.78;21.52;;;;;;;;;;5061383;28;20056;-75
2022/12/12 09:54:53;;;;;;;35.00;21.17;;;;;;;;;;5055300;28;20123;-75
2022/12/12 09:57:34;;;;;;;34.63;20.85;;;;;;;;;;5057977;28;20516;-75
2022/12/12 10:00:00;;;;;;;33.20;20.98;;;;;;;;;;5055791;28;20095;-75
2022/12/12 10:02:37;;;;;;;38.55;23.02;;;;;;;;;;5060414;28;20052;-75
2022/12/12 10:05:21;;;;;;;33.85;20.70;;;;;;;;;;5061996;28;20048;-75
2022/12/12 10:08:06;;;;;;;35.40;22.05;;;;;;;;;;5060907;28;20048;-75
2022/12/12 10:10:32;;;;;;;34.47;21.48;;;;;;;;;;5055552;28;20045;-75
2022/12/12 10:12:59;;;;;;;35.22;22.90;;;;;;;;;;5055633;28;20581;-75
2022/12/12 10:15:25;;;;;;;35.88;22.17;;;;;;;;;;5059509;28;20080;-75
2022/12/12 10:17:52;;;;;;;34.97;22.55;;;;;;;;;;5060189;28;20079;-75
2022/12/12 10:20:23;;;;;;;34.28;21.58;;;;;;;;;;5062971;28;20485;-75
2022/12/12 10:22:52;;;;;;;34.42;20.90;;;;;;;;;;5065339;28;20044;-75
2022/12/12 10:25:18;;;;;;;37.65;22.45;;;;;;;;;;5061589;28;20127;-75
2022/12/12 10:27:44;;;;;;;34.38;21.88;;;;;;;;;;5064946;28;20067;-75
2022/12/12 10:30:15;;;;;;;34.58;21.45;;;;;;;;;;5060727;28;20118;-75
2022/12/12 10:32:41;;;;;;;37.55;23.25;;;;;;;;;;5065928;28;20033;-75
2022/12/12 10:35:14;;;;;;;36.67;22.70;;;;;;;;;;5061906;28;20456;-75
2022/12/12 10:37:40;;;;;;;35.42;22.35;;;;;;;;;;5068447;28;20052;-75
2022/12/12 10:40:18;;;;;;;35.70;22.63;;;;;;;;;;5057875;28;20038;-75
2022/12/12 10:43:01;;;;;;;38.13;23.70;;;;;;;;;;5063939;28;20101;-75
2022/12/12 10:45:33;;;;;;;35.03;22.30;;;;;;;;;;5066618;28;20489;-75
2022/12/12 10:47:59;;;;;;;36.83;22.98;;;;;;;;;;5063319;28;20048;-75
2022/12/12 10:50:28;;;;;;;35.15;23.00;;;;;;;;;;5063740;28;20137;-75
2022/12/12 10:52:57;;;;;;;36.45;23.42;;;;;;;;;;5062494;28;20559;-75
2022/12/12 10:55:43;;;;;;;39.28;24.40;;;;;;;;;;5060340;28;20037;-75
2022/12/12 10:58:09;;;;;;;38.47;24.05;;;;;;;;;;5051446;28;20423;-78
2022/12/12 11:00:37;;;;;;;34.83;23.33;;;;;;;;;;5065263;28;20040;-75
2022/12/12 11:03:23;;;;;;;35.58;22.20;;;;;;;;;;5061931;28;20123;-75
2022/12/12 11:05:49;;;;;;;33.97;22.13;;;;;;;;;;5057150;28;20052;-75
2022/12/12 11:08:22;;;;;;;35.75;23.63;;;;;;;;;;5060741;28;20045;-76
2022/12/12 11:11:07;;;;;;;35.22;22.40;;;;;;;;;;5064633;28;20364;-76
2022/12/12 11:13:53;;;;;;;32.30;21.95;;;;;;;;;;5065792;28;20528;-75
2022/12/12 11:16:39;;;;;;;35.08;22.15;;;;;;;;;;5064212;28;20048;-76
2022/12/12 11:19:05;;;;;;;34.47;21.00;;;;;;;;;;5059445;28;20132;-75
2022/12/12 11:21:33;;;;;;;31.60;20.50;;;;;;;;;;5058251;28;20044;-75
2022/12/12 11:23:59;;;;;;;32.05;20.33;;;;;;;;;;5059210;28;20083;-75
2022/12/12 11:26:27;;;;;;;32.10;20.15;;;;;;;;;;5064346;28;20040;-75
2022/12/12 11:28:57;;;;;;;32.83;19.88;;;;;;;;;;5058145;28;20106;-75
2022/12/12 11:31:25;;;;;;;29.13;19.33;;;;;;;;;;5064474;28;20063;-76
2022/12/12 11:33:53;;;;;;;26.83;17.55;;;;;;;;;;5057405;28;20106;-75
2022/12/12 11:36:22;;;;;;;27.55;18.42;;;;;;;;;;5057995;28;20063;-75
2022/12/12 11:38:53;;;;;;;27.67;19.00;;;;;;;;;;5063174;28;20036;-75
2022/12/12 11:41:19;;;;;;;27.02;17.33;;;;;;;;;;5059387;28;20140;-75
2022/12/12 11:43:48;;;;;;;29.88;17.42;;;;;;;;;;5058689;28;20043;-75
2022/12/12 11:46:14;;;;;;;26.98;17.40;;;;;;;;;;5058831;28;20045;-75
2022/12/12 11:48:46;;;;;;;25.52;16.75;;;;;;;;;;5059351;28;20051;-75
2022/12/12 11:51:12;;;;;;;26.58;17.02;;;;;;;;;;5056952;28;20408;-75
2022/12/12 11:53:40;;;;;;;23.83;15.57;;;;;;;;;;5063981;28;20052;-75
2022/12/12 11:56:06;;;;;;;25.83;15.65;;;;;;;;;;5058900;28;20033;-75
2022/12/12 11:58:36;;;;;;;25.10;16.00;;;;;;;;;;5062007;28;20037;-75
2022/12/12 12:01:05;;;;;;;23.08;16.73;;;;;;;;;;5059420;28;20049;-75
2022/12/12 12:03:34;;;;;;;24.85;16.45;;;;;;;;;;5062866;28;20082;-75
2022/12/12 12:06:13;;;;;;;25.10;17.63;;;;;;;;;;5063385;28;20045;-75
2022/12/12 12:08:42;;;;;;;22.98;15.55;;;;;;;;;;5057792;28;20465;-75
2022/12/12 12:11:13;;;;;;;23.98;16.17;;;;;;;;;;5061724;28;20052;-75
2022/12/12 12:13:58;;;;;;;24.30;17.33;;;;;;;;;;5059771;28;20493;-75
2022/12/12 12:16:27;;;;;;;24.33;15.23;;;;;;;;;;5052502;28;20048;-75
2022/12/12 12:18:56;;;;;;;22.70;15.10;;;;;;;;;;5055899;28;20050;-75
2022/12/12 12:21:41;;;;;;;18.35;12.45;;;;;;;;;;5055379;28;20055;-75
2022/12/12 12:24:07;;;;;;;21.40;13.65;;;;;;;;;;5058616;28;20037;-75
2022/12/12 12:26:49;;;;;;;21.73;13.45;;;;;;;;;;5060842;28;20041;-75
2022/12/12 12:29:26;;;;;;;20.02;13.73;;;;;;;;;;5056777;28;20500;-75
2022/12/12 12:31:58;;;;;;;21.85;13.00;;;;;;;;;;5057317;28;20068;-75
2022/12/12 12:34:30;;;;;;;22.10;12.85;;;;;;;;;;5055280;28;20403;-75
2022/12/12 12:37:10;;;;;;;18.05;11.65;;;;;;;;;;5057542;28;20077;-73
2022/12/12 12:39:36;;;;;;;17.98;11.10;;;;;;;;;;5059372;28;20458;-73
2022/12/12 12:42:22;;;;;;;17.73;11.88;;;;;;;;;;5062588;28;20102;-73
2022/12/12 12:44:57;;;;;;;16.38;11.20;;;;;;;;;;5071075;28;20055;-72
2022/12/12 12:47:27;;;;;;;16.50;10.90;;;;;;;;;;5059275;28;20061;-71
2022/12/12 12:49:56;;;;;;;17.40;11.73;;;;;;;;;;5059300;28;20408;-75
2022/12/12 12:52:43;;;;;;;17.00;12.15;;;;;;;;;;5056085;28;20036;-74
2022/12/12 12:55:18;;;;;;;22.00;12.77;;;;;;;;;;5060958;28;20079;-72
2022/12/12 12:57:46;;;;;;;20.00;12.55;;;;;;;;;;5057311;28;20114;-73
2022/12/12 13:00:14;;;;;;;18.48;12.32;;;;;;;;;;5060508;28;20089;-73
2022/12/12 13:03:01;;;;;;;17.70;12.23;;;;;;;;;;5061005;28;20056;-73
2022/12/12 13:05:30;;;;;;;19.55;13.27;;;;;;;;;;5063297;28;20484;-73
2022/12/12 13:07:56;;;;;;;17.45;12.82;;;;;;;;;;5055523;28;20060;-73
2022/12/12 13:10:24;;;;;;;18.02;13.05;;;;;;;;;;5056756;28;20087;-73
2022/12/12 13:12:50;;;;;;;17.08;12.88;;;;;;;;;;5062265;28;20560;-73
2022/12/12 13:15:19;;;;;;;18.20;13.07;;;;;;;;;;5060765;28;20037;-73
2022/12/12 13:18:00;;;;;;;19.15;12.65;;;;;;;;;;5056350;28;20102;-73
2022/12/12 13:20:27;;;;;;;17.83;13.82;;;;;;;;;;5055816;28;20048;-73
2022/12/12 13:23:03;;;;;;;18.88;13.70;;;;;;;;;;5053290;28;20049;-73
2022/12/12 13:25:34;;;;;;;19.50;14.10;;;;;;;;;;5051132;28;20124;-73
2022/12/12 13:28:03;;;;;;;18.85;14.75;;;;;;;;;;5056946;28;20352;-73
2022/12/12 13:30:35;;;;;;;17.23;13.38;;;;;;;;;;5058448;28;20056;-73
2022/12/12 13:33:01;;;;;;;19.33;13.52;;;;;;;;;;5062273;28;20056;-73
2022/12/12 13:35:37;;;;;;;20.38;14.95;;;;;;;;;;5061775;28;20135;-74
2022/12/12 13:38:04;;;;;;;19.75;16.00;;;;;;;;;;5057116;28;20044;-74
2022/12/12 13:40:31;;;;;;;20.05;15.18;;;;;;;;;;5058466;28;20050;-74
2022/12/12 13:42:58;;;;;;;23.38;16.90;;;;;;;;;;5053621;28;20109;-74
2022/12/12 13:45:31;;;;;;;20.98;15.68;;;;;;;;;;5061972;28;20099;-75
2022/12/12 13:48:04;;;;;;;21.13;15.80;;;;;;;;;;5062281;28;20040;-74
2022/12/12 13:50:30;;;;;;;22.65;16.92;;;;;;;;;;5058844;28;20044;-74
2022/12/12 13:53:05;;;;;;;22.27;17.17;;;;;;;;;;5053979;28;20052;-75
2022/12/12 13:55:31;;;;;;;21.50;15.52;;;;;;;;;;5064197;28;20067;-75
2022/12/12 13:57:58;;;;;;;22.63;16.58;;;;;;;;;;5064590;28;20431;-75
2022/12/12 14:00:30;;;;;;;22.10;15.63;;;;;;;;;;5055979;28;20053;-75
2022/12/12 14:02:59;;;;;;;23.70;16.45;;;;;;;;;;5060072;28;20072;-75
2022/12/12 14:05:27;;;;;;;24.48;16.88;;;;;;;;;;5055835;28;20674;-75
2022/12/12 14:07:59;;;;;;;22.83;17.25;;;;;;;;;;5066624;28;20032;-75
2022/12/12 14:10:27;;;;;;;23.90;16.80;;;;;;;;;;5059041;28;20044;-75
2022/12/12 14:12:54;;;;;;;24.60;16.83;;;;;;;;;;5059623;28;20051;-75
2022/12/12 14:15:30;;;;;;;26.30;18.75;;;;;;;;;;5061904;28;20036;-75
2022/12/12 14:18:01;;;;;;;25.13;16.67;;;;;;;;;;5053505;28;20052;-75
2022/12/12 14:20:29;;;;;;;24.80;17.38;;;;;;;;;;5061006;28;20564;-75
2022/12/12 14:22:55;;;;;;;25.10;17.52;;;;;;;;;;5059210;28;20048;-75
2022/12/12 14:25:35;;;;;;;23.83;17.08;;;;;;;;;;5062704;28;20044;-75
2022/12/12 14:28:16;;;;;;;24.38;17.05;;;;;;;;;;5063926;28;20131;-75
2022/12/12 14:30:45;;;;;;;25.38;16.75;;;;;;;;;;5061945;28;20480;-75
2022/12/12 14:33:17;;;;;;;22.60;17.25;;;;;;;;;;5060079;28;20054;-75
2022/12/12 14:36:04;;;;;;;24.08;17.58;;;;;;;;;;5062456;28;20513;-75
2022/12/12 14:38:48;;;;;;;25.73;17.23;;;;;;;;;;5062896;28;20381;-75
2022/12/12 14:41:17;;;;;;;25.15;18.42;;;;;;;;;;5061781;28;20481;-75
2022/12/12 14:43:52;;;;;;;23.55;17.00;;;;;;;;;;5057216;28;20040;-75